Time;durP1;ratioP1;P1;durP2;ratioP2;P2;SDS_P1;SDS_P2;PMS_P1;PMS_P2;Temp;Humidity;BMP_temperature;BMP_pressure;BME280_temperature;BME280_humidity;BME280_pressure;Samples;Min_cycle;Max_cycle;Signal;HPM_P1;HPM_P2
2022/10/09 00:01:19;;;;;;;9.40;4.43;;;;;;;6.66;95.40;102475.38;5069799;28;20051;-65
2022/10/09 00:03:47;;;;;;;8.60;5.07;;;;;;;6.62;95.94;102481.88;5071500;28;20407;-65
2022/10/09 00:06:19;;;;;;;9.70;4.20;;;;;;;6.61;96.75;102476.72;5068151;28;20040;-65
2022/10/09 00:08:45;;;;;;;10.93;5.07;;;;;;;6.59;96.51;102468.91;5069375;28;20020;-65
2022/10/09 00:11:16;;;;;;;12.10;4.88;;;;;;;6.55;96.37;102478.09;5069506;28;20025;-65
2022/10/09 00:13:42;;;;;;;10.95;5.38;;;;;;;6.50;96.35;102482.94;5069463;28;20087;-65
2022/10/09 00:16:10;;;;;;;10.63;4.88;;;;;;;6.45;96.45;102480.69;5069510;28;20064;-65
2022/10/09 00:18:36;;;;;;;14.25;5.88;;;;;;;6.42;97.15;102478.28;5069487;28;20063;-65
2022/10/09 00:21:03;;;;;;;8.75;4.65;;;;;;;6.48;97.55;102476.94;5068096;28;20118;-65
2022/10/09 00:23:28;;;;;;;10.00;4.47;;;;;;;6.50;97.65;102481.13;5069383;28;20028;-65
2022/10/09 00:26:00;;;;;;;14.43;6.20;;;;;;;6.52;97.65;102489.81;5067940;28;20541;-65
2022/10/09 00:28:29;;;;;;;11.27;5.85;;;;;;;6.51;97.67;102485.44;5068758;28;20032;-65
2022/10/09 00:30:54;;;;;;;12.27;4.70;;;;;;;6.51;97.28;102490.75;5068896;28;20020;-65
2022/10/09 00:33:20;;;;;;;7.90;3.80;;;;;;;6.47;96.64;102489.34;5068968;28;20028;-65
2022/10/09 00:35:46;;;;;;;9.75;4.50;;;;;;;6.41;96.17;102491.66;5068934;28;20044;-65
2022/10/09 00:38:11;;;;;;;14.05;5.35;;;;;;;6.40;97.34;102485.53;5069231;28;20395;-65
2022/10/09 00:40:38;;;;;;;8.80;5.03;;;;;;;6.40;96.94;102484.69;5069215;28;20384;-65
2022/10/09 00:43:06;;;;;;;10.98;4.60;;;;;;;6.33;96.38;102481.69;5069311;28;20039;-65
2022/10/09 00:45:31;;;;;;;8.27;4.50;;;;;;;6.29;96.47;102485.59;5069123;28;20093;-65
2022/10/09 00:48:00;;;;;;;8.77;5.13;;;;;;;6.27;96.98;102479.56;5069167;28;20024;-65
2022/10/09 00:50:37;;;;;;;12.25;5.10;;;;;;;6.29;97.49;102488.25;5069153;28;20035;-65
2022/10/09 00:53:02;;;;;;;11.95;5.80;;;;;;;6.26;97.30;102478.75;5069028;28;20464;-65
2022/10/09 00:55:30;;;;;;;9.15;4.72;;;;;;;6.29;96.60;102483.78;5069043;28;20078;-65
2022/10/09 00:57:58;;;;;;;18.75;4.20;;;;;;;6.25;96.27;102482.34;5068826;28;20353;-65
2022/10/09 01:00:23;;;;;;;11.23;4.10;;;;;;;6.22;96.23;102487.91;5068997;28;20020;-65
2022/10/09 01:02:49;;;;;;;9.55;5.13;;;;;;;6.17;95.96;102481.31;5068987;28;20029;-65
2022/10/09 01:05:15;;;;;;;7.72;4.45;;;;;;;6.08;95.97;102483.75;5071057;28;20013;-65
2022/10/09 01:07:51;;;;;;;10.68;5.65;;;;;;;6.02;96.30;102476.28;5072994;28;20692;-65
2022/10/09 01:10:31;;;;;;;9.18;4.90;;;;;;;5.93;96.65;102466.44;5072920;28;20082;-65
2022/10/09 01:13:12;;;;;;;11.50;4.78;;;;;;;5.88;96.47;102476.56;5072658;28;20072;-65
2022/10/09 01:15:49;;;;;;;8.23;4.88;;;;;;;5.89;96.96;102473.81;5072761;28;20063;-65
2022/10/09 01:18:42;;;;;;;10.23;4.32;;;;;;;5.89;97.75;102467.66;5072768;28;20040;-65
2022/10/09 01:21:12;;;;;;;11.93;6.22;;;;;;;5.85;97.75;102466.22;5072706;28;20032;-65
2022/10/09 01:23:56;;;;;;;8.82;4.50;;;;;;;5.89;97.89;102470.28;5072590;28;20036;-65
2022/10/09 01:26:34;;;;;;;9.05;5.00;;;;;;;5.91;98.29;102453.31;5072627;28;20032;-65
2022/10/09 01:29:05;;;;;;;8.10;4.45;;;;;;;5.87;97.36;102464.31;5072171;28;20028;-65
2022/10/09 01:31:34;;;;;;;13.43;5.03;;;;;;;5.83;97.31;102460.22;5071881;28;20492;-64
2022/10/09 01:34:01;;;;;;;12.23;5.18;;;;;;;5.79;97.87;102440.25;5071857;28;20056;-64
2022/10/09 01:36:29;;;;;;;11.45;4.85;;;;;;;5.85;98.42;102453.81;5072316;28;20044;-65
2022/10/09 01:38:59;;;;;;;9.25;4.90;;;;;;;5.87;98.33;102454.56;5072450;28;20083;-65
2022/10/09 01:41:25;;;;;;;12.50;4.50;;;;;;;5.89;98.42;102452.63;5072331;28;20020;-64
2022/10/09 01:43:50;;;;;;;10.00;4.97;;;;;;;5.93;98.54;102450.56;5072256;28;20040;-65
2022/10/09 01:46:31;;;;;;;10.57;5.00;;;;;;;5.89;97.93;102449.97;5072191;28;20063;-64
2022/10/09 01:49:00;;;;;;;11.68;5.82;;;;;;;5.84;97.64;102451.28;5072136;28;20048;-65
2022/10/09 01:51:32;;;;;;;12.32;5.85;;;;;;;5.79;98.48;102448.19;5072037;28;20127;-64
2022/10/09 01:54:00;;;;;;;14.23;5.78;;;;;;;5.76;98.50;102438.69;5072050;28;20025;-65
2022/10/09 01:56:32;;;;;;;8.88;5.00;;;;;;;5.76;98.86;102432.56;5071931;28;20131;-65
2022/10/09 01:59:02;;;;;;;10.60;4.80;;;;;;;5.76;98.49;102432.56;5071889;28;20024;-65
2022/10/09 02:01:30;;;;;;;9.00;5.40;;;;;;;5.77;98.66;102439.56;5071980;28;20032;-65
2022/10/09 02:03:58;;;;;;;8.32;5.55;;;;;;;5.74;98.71;102431.84;5071939;28;20025;-65
2022/10/09 02:06:25;;;;;;;10.02;5.35;;;;;;;5.78;98.97;102441.22;5071718;28;20072;-64
2022/10/09 02:08:52;;;;;;;9.15;5.32;;;;;;;5.76;98.99;102432.56;5071669;28;20056;-65
2022/10/09 02:11:18;;;;;;;10.43;5.10;;;;;;;5.76;99.01;102424.63;5071789;28;20036;-65
2022/10/09 02:13:46;;;;;;;8.32;5.25;;;;;;;5.73;98.52;102425.69;5071474;28;20117;-65
2022/10/09 02:16:15;;;;;;;9.43;4.88;;;;;;;5.74;98.84;102429.19;5070505;28;20028;-64
2022/10/09 02:18:47;;;;;;;12.80;5.32;;;;;;;5.76;99.55;102421.97;5071566;28;20028;-65
2022/10/09 02:21:19;;;;;;;12.68;5.55;;;;;;;5.71;99.83;102414.41;5071614;28;20119;-65
2022/10/09 02:23:47;;;;;;;9.85;5.38;;;;;;;5.79;99.48;102427.00;5070884;28;20106;-65
2022/10/09 02:26:13;;;;;;;11.73;4.57;;;;;;;5.72;98.72;102418.75;5071440;28;20082;-65
2022/10/09 02:28:39;;;;;;;9.48;5.40;;;;;;;5.75;99.19;102423.78;5070017;28;20036;-65
2022/10/09 02:31:25;;;;;;;15.45;6.80;;;;;;;5.74;99.88;102416.81;5071338;28;20043;-65
2022/10/09 02:33:55;;;;;;;14.88;5.78;;;;;;;5.75;99.70;102415.84;5070921;28;20089;-65
2022/10/09 02:36:20;;;;;;;10.15;5.72;;;;;;;5.77;99.41;102421.00;5070812;28;20029;-65
2022/10/09 02:38:45;;;;;;;13.35;5.57;;;;;;;5.75;99.49;102423.78;5071254;28;20040;-65
2022/10/09 02:41:11;;;;;;;11.68;6.10;;;;;;;5.72;99.67;102419.56;5071207;28;20078;-65
2022/10/09 02:43:36;;;;;;;13.68;6.03;;;;;;;5.72;99.77;102414.28;5071116;28;20081;-65
2022/10/09 02:46:01;;;;;;;7.50;4.68;;;;;;;5.69;99.13;102414.53;5071194;28;20025;-65
2022/10/09 02:48:27;;;;;;;13.82;7.05;;;;;;;5.53;98.51;102395.59;5071168;28;20094;-65
2022/10/09 02:50:52;;;;;;;12.57;5.35;;;;;;;5.60;99.78;102411.78;5071138;28;20039;-65
2022/10/09 02:53:17;;;;;;;12.55;5.75;;;;;;;5.49;98.79;102402.09;5071009;28;20036;-65
2022/10/09 02:55:43;;;;;;;9.30;5.50;;;;;;;5.47;98.43;102409.31;5070798;28;20136;-65
2022/10/09 02:58:08;;;;;;;11.02;5.22;;;;;;;5.42;98.38;102408.84;5069415;28;20048;-65
2022/10/09 03:00:33;;;;;;;12.15;6.63;;;;;;;5.38;98.86;102412.72;5070737;28;20044;-65
2022/10/09 03:02:59;;;;;;;9.18;5.28;;;;;;;5.34;98.42;102414.75;5070674;28;20086;-65
2022/10/09 03:05:24;;;;;;;12.10;5.93;;;;;;;5.34;99.11;102406.81;5070594;28;20040;-65
2022/10/09 03:07:52;;;;;;;14.48;6.22;;;;;;;5.28;98.37;102405.50;5070613;28;20031;-65
2022/10/09 03:10:19;;;;;;;11.55;5.60;;;;;;;5.24;98.88;102414.66;5070398;28;20119;-64
2022/10/09 03:12:44;;;;;;;9.40;4.72;;;;;;;5.21;98.75;102409.63;5070331;28;20539;-65
2022/10/09 03:15:11;;;;;;;9.10;5.10;;;;;;;5.18;98.87;102407.19;5070158;28;20043;-65
2022/10/09 03:17:36;;;;;;;9.43;4.55;;;;;;;5.18;99.19;102407.19;5070554;28;20056;-65
2022/10/09 03:20:01;;;;;;;12.75;5.55;;;;;;;5.17;99.07;102408.19;5070497;28;20054;-65
2022/10/09 03:22:27;;;;;;;10.80;5.47;;;;;;;5.17;99.15;102410.00;5070573;28;20471;-64
2022/10/09 03:24:53;;;;;;;11.00;5.00;;;;;;;5.18;99.52;102401.91;5070246;28;20179;-65
2022/10/09 03:27:18;;;;;;;9.30;5.80;;;;;;;5.21;98.93;102408.75;5069798;28;20603;-65
2022/10/09 03:29:43;;;;;;;11.60;5.35;;;;;;;5.18;99.59;102404.56;5070079;28;20095;-65
2022/10/09 03:32:09;;;;;;;12.30;5.57;;;;;;;5.24;100.00;102404.09;5070082;28;20031;-65
2022/10/09 03:34:34;;;;;;;8.52;4.15;;;;;;;5.23;99.57;102402.38;5069775;28;20038;-65
2022/10/09 03:36:59;;;;;;;7.25;4.90;;;;;;;5.16;98.84;102401.22;5069538;28;20124;-64
2022/10/09 03:39:25;;;;;;;8.25;4.68;;;;;;;5.07;98.50;102396.66;5069741;28;20060;-64
2022/10/09 03:41:50;;;;;;;13.82;5.47;;;;;;;5.04;99.44;102396.91;5069760;28;20028;-64
2022/10/09 03:44:15;;;;;;;10.13;4.75;;;;;;;5.03;99.50;102388.13;5070188;28;20032;-64
2022/10/09 03:46:41;;;;;;;10.43;5.18;;;;;;;4.99;99.18;102389.31;5069875;28;20082;-64
2022/10/09 03:49:06;;;;;;;10.77;5.53;;;;;;;4.97;99.34;102390.41;5069802;28;20078;-64
2022/10/09 03:51:32;;;;;;;9.23;6.03;;;;;;;4.96;99.33;102386.09;5069497;28;20115;-64
2022/10/09 03:53:57;;;;;;;13.77;4.20;;;;;;;4.94;99.49;102385.38;5069522;28;20119;-64
2022/10/09 03:56:23;;;;;;;8.27;4.60;;;;;;;4.92;99.24;102392.56;5069855;28;20040;-64
2022/10/09 03:58:48;;;;;;;11.75;5.75;;;;;;;4.84;98.35;102391.38;5069758;28;20043;-66
2022/10/09 04:01:13;;;;;;;9.38;4.95;;;;;;;4.79;98.84;102390.91;5069657;28;20041;-66
2022/10/09 04:03:39;;;;;;;8.13;4.60;;;;;;;4.78;99.14;102386.56;5069574;28;20656;-66
2022/10/09 04:06:04;;;;;;;9.55;5.25;;;;;;;4.77;99.22;102394.66;5069568;28;20024;-66
2022/10/09 04:08:29;;;;;;;11.38;5.22;;;;;;;4.75;99.18;102400.03;5069524;28;20394;-66
2022/10/09 04:10:58;;;;;;;11.68;5.07;;;;;;;4.77;99.86;102397.28;5068263;28;20044;-66
2022/10/09 04:13:24;;;;;;;13.00;6.20;;;;;;;4.75;99.67;102402.69;5069445;28;20073;-66
2022/10/09 04:15:53;;;;;;;9.65;5.13;;;;;;;4.72;99.41;102395.00;5069491;28;20028;-66
2022/10/09 04:18:19;;;;;;;11.27;5.00;;;;;;;4.73;99.58;102390.53;5069544;28;20468;-67
2022/10/09 04:20:51;;;;;;;12.13;5.28;;;;;;;4.68;99.95;102388.25;5069364;28;20025;-67
2022/10/09 04:23:18;;;;;;;7.97;4.75;;;;;;;4.71;99.63;102397.75;5069558;28;20449;-67
2022/10/09 04:25:44;;;;;;;10.00;5.55;;;;;;;4.70;99.55;102399.56;5069266;28;20028;-67
2022/10/09 04:28:09;;;;;;;10.73;4.70;;;;;;;4.72;99.99;102394.16;5069396;28;20460;-67
2022/10/09 04:30:34;;;;;;;14.48;7.43;;;;;;;4.63;99.84;102393.06;5069465;28;20780;-67
2022/10/09 04:33:00;;;;;;;9.75;4.93;;;;;;;4.66;99.49;102400.75;5069262;28;20029;-67
2022/10/09 04:35:25;;;;;;;10.82;5.03;;;;;;;4.66;99.73;102400.75;5068992;28;20037;-67
2022/10/09 04:37:51;;;;;;;11.70;4.88;;;;;;;4.64;99.63;102393.91;5069279;28;20085;-67
2022/10/09 04:40:16;;;;;;;10.63;5.18;;;;;;;4.60;99.89;102394.13;5068502;28;20040;-67
2022/10/09 04:42:41;;;;;;;9.13;5.57;;;;;;;4.60;99.52;102390.66;5067968;28;20117;-67
2022/10/09 04:45:07;;;;;;;10.18;5.20;;;;;;;4.59;99.37;102399.56;5069268;28;20027;-67
2022/10/09 04:47:33;;;;;;;10.13;4.90;;;;;;;4.58;99.39;102396.09;5069124;28;20047;-67
2022/10/09 04:49:58;;;;;;;11.27;6.53;;;;;;;4.53;99.31;102385.03;5069066;28;20387;-67
2022/10/09 04:52:24;;;;;;;8.88;4.97;;;;;;;4.52;99.33;102382.50;5069250;28;20035;-67
2022/10/09 04:54:49;;;;;;;9.80;5.25;;;;;;;4.48;99.52;102392.47;5067821;28;20443;-68
2022/10/09 04:57:15;;;;;;;10.27;5.28;;;;;;;4.45;99.78;102379.47;5069149;28;20032;-67
2022/10/09 04:59:41;;;;;;;10.50;5.40;;;;;;;4.45;99.89;102383.91;5069074;28;20036;-67
2022/10/09 05:02:06;;;;;;;9.15;5.32;;;;;;;4.39;99.48;102386.06;5067707;28;20036;-66
2022/10/09 05:04:32;;;;;;;12.57;5.45;;;;;;;4.32;99.33;102381.38;5068869;28;20052;-66
2022/10/09 05:06:57;;;;;;;12.40;5.10;;;;;;;4.25;99.33;102380.19;5068914;28;20028;-66
2022/10/09 05:09:23;;;;;;;9.45;4.78;;;;;;;4.19;99.62;102373.56;5069028;28;20036;-66
2022/10/09 05:11:48;;;;;;;8.23;4.93;;;;;;;4.16;99.50;102377.25;5068713;28;20025;-65
2022/10/09 05:14:13;;;;;;;12.30;5.20;;;;;;;4.15;100.00;102369.47;5068809;28;20098;-65
2022/10/09 05:16:39;;;;;;;10.02;5.13;;;;;;;4.21;100.00;102370.81;5068920;28;20071;-66
2022/10/09 05:19:04;;;;;;;10.40;5.55;;;;;;;4.23;100.00;102368.91;5068923;28;20032;-66
2022/10/09 05:21:30;;;;;;;8.85;5.53;;;;;;;4.24;99.89;102366.13;5068884;28;20029;-66
2022/10/09 05:23:56;;;;;;;9.38;4.65;;;;;;;4.23;99.93;102372.38;5068849;28;20044;-66
2022/10/09 05:26:23;;;;;;;9.63;5.07;;;;;;;4.22;99.77;102368.06;5068757;28;20033;-66
2022/10/09 05:28:49;;;;;;;12.90;5.68;;;;;;;4.24;100.00;102370.56;5068788;28;20032;-66
2022/10/09 05:31:21;;;;;;;10.02;5.70;;;;;;;4.23;100.00;102379.47;5068797;28;20032;-66
2022/10/09 05:33:47;;;;;;;8.80;5.03;;;;;;;4.20;100.00;102369.13;5068767;28;20122;-66
2022/10/09 05:36:13;;;;;;;11.85;6.13;;;;;;;4.16;99.67;102369.34;5068677;28;20498;-66
2022/10/09 05:38:39;;;;;;;13.45;4.68;;;;;;;4.10;99.93;102359.25;5068728;28;20447;-66
2022/10/09 05:41:06;;;;;;;8.98;4.82;;;;;;;4.10;99.98;102358.44;5068779;28;20436;-66
2022/10/09 05:43:36;;;;;;;9.15;5.25;;;;;;;4.11;100.00;102365.38;5068619;28;20063;-66
2022/10/09 05:46:11;;;;;;;10.88;5.53;;;;;;;4.10;100.00;102353.97;5068480;28;20029;-66
2022/10/09 05:48:38;;;;;;;8.02;4.85;;;;;;;4.18;100.00;102363.97;5068512;28;20075;-65
2022/10/09 05:51:14;;;;;;;11.40;5.80;;;;;;;4.18;100.00;102361.31;5069924;28;20052;-65
2022/10/09 05:53:41;;;;;;;20.17;7.80;;;;;;;4.25;100.00;102365.19;5072097;28;20147;-65
2022/10/09 05:56:13;;;;;;;9.23;4.97;;;;;;;4.27;100.00;102365.91;5071988;28;20050;-65
2022/10/09 05:58:38;;;;;;;12.05;5.07;;;;;;;4.26;100.00;102366.84;5071869;28;20071;-66
2022/10/09 06:01:04;;;;;;;10.77;5.15;;;;;;;4.25;100.00;102367.81;5071848;28;20098;-66
2022/10/09 06:03:29;;;;;;;9.00;5.05;;;;;;;4.25;100.00;102367.00;5071825;28;20047;-66
2022/10/09 06:06:02;;;;;;;9.75;5.60;;;;;;;4.25;100.00;102367.81;5071878;28;20085;-65
2022/10/09 06:08:31;;;;;;;9.35;5.75;;;;;;;4.24;100.00;102366.13;5071862;28;20027;-66
2022/10/09 06:10:57;;;;;;;11.50;6.28;;;;;;;4.24;100.00;102360.00;5071746;28;20020;-66
2022/10/09 06:13:22;;;;;;;10.35;5.78;;;;;;;4.22;100.00;102365.41;5071577;28;20071;-65
2022/10/09 06:15:54;;;;;;;10.82;6.18;;;;;;;4.15;100.00;102357.13;5071599;28;20549;-65
2022/10/09 06:18:20;;;;;;;10.48;6.00;;;;;;;4.23;100.00;102363.63;5071575;28;20036;-65
2022/10/09 06:20:56;;;;;;;11.93;5.65;;;;;;;4.19;100.00;102363.00;5071562;28;20035;-65
2022/10/09 06:23:21;;;;;;;8.52;5.43;;;;;;;4.16;100.00;102365.88;5071118;28;20044;-65
2022/10/09 06:25:55;;;;;;;14.02;5.93;;;;;;;4.21;100.00;102365.53;5071096;28;20024;-65
2022/10/09 06:28:20;;;;;;;12.30;6.53;;;;;;;4.25;100.00;102364.34;5071212;28;20028;-65
2022/10/09 06:30:46;;;;;;;10.35;5.63;;;;;;;4.24;100.00;102366.13;5071401;28;20479;-67
2022/10/09 06:33:12;;;;;;;11.85;5.35;;;;;;;4.30;100.00;102370.94;5071411;28;20032;-66
2022/10/09 06:35:37;;;;;;;11.00;6.47;;;;;;;4.35;100.00;102378.53;5071101;28;20110;-66
2022/10/09 06:38:03;;;;;;;12.30;6.20;;;;;;;4.37;100.00;102372.13;5070769;28;20036;-66
2022/10/09 06:40:28;;;;;;;12.40;6.65;;;;;;;4.38;100.00;102368.56;5070580;28;20050;-66
2022/10/09 06:42:53;;;;;;;7.95;5.55;;;;;;;4.41;100.00;102367.47;5070989;28;20036;-67
2022/10/09 06:45:19;;;;;;;11.95;6.70;;;;;;;4.43;100.00;102360.28;5071008;28;20057;-66
2022/10/09 06:47:44;;;;;;;9.75;6.55;;;;;;;4.54;100.00;102375.28;5069457;28;20044;-66
2022/10/09 06:50:09;;;;;;;11.70;6.15;;;;;;;4.60;100.00;102373.00;5070776;28;20029;-66
2022/10/09 06:52:35;;;;;;;17.17;9.13;;;;;;;4.68;100.00;102375.03;5070522;28;20039;-65
2022/10/09 06:55:00;;;;;;;11.98;6.53;;;;;;;4.77;100.00;102374.34;5070788;28;20555;-66
2022/10/09 06:57:25;;;;;;;11.68;6.50;;;;;;;4.84;100.00;102367.56;5070768;28;20539;-66
2022/10/09 06:59:51;;;;;;;11.18;6.25;;;;;;;4.96;100.00;102378.16;5070742;28;20094;-65
2022/10/09 07:02:17;;;;;;;12.85;7.35;;;;;;;5.05;100.00;102375.59;5070070;28;20060;-66
2022/10/09 07:04:42;;;;;;;21.77;8.25;;;;;;;5.14;100.00;102374.03;5070620;28;20456;-66
2022/10/09 07:07:08;;;;;;;15.07;8.32;;;;;;;5.22;100.00;102368.13;5070457;28;20029;-66
2022/10/09 07:09:33;;;;;;;14.68;8.23;;;;;;;5.33;100.00;102367.28;5069725;28;20032;-66
2022/10/09 07:11:58;;;;;;;16.80;9.40;;;;;;;5.42;100.00;102374.44;5069955;28;20028;-65
2022/10/09 07:14:24;;;;;;;15.30;7.07;;;;;;;5.51;100.00;102375.50;5070560;28;20040;-65
2022/10/09 07:16:50;;;;;;;16.50;8.27;;;;;;;5.57;100.00;102370.53;5070590;28;20024;-69
2022/10/09 07:19:18;;;;;;;14.68;8.27;;;;;;;5.65;100.00;102367.25;5069206;28;20102;-65
2022/10/09 07:21:45;;;;;;;12.43;7.60;;;;;;;5.73;100.00;102372.75;5070319;28;20028;-65
2022/10/09 07:24:12;;;;;;;14.13;7.25;;;;;;;5.86;100.00;102372.59;5070180;28;20037;-65
2022/10/09 07:26:40;;;;;;;22.27;9.27;;;;;;;5.95;100.00;102369.22;5069786;28;20464;-65
2022/10/09 07:29:07;;;;;;;16.05;7.05;;;;;;;6.04;100.00;102371.06;5070111;28;20060;-65
2022/10/09 07:31:33;;;;;;;14.90;7.55;;;;;;;6.12;100.00;102371.25;5070123;28;20028;-65
2022/10/09 07:33:58;;;;;;;12.70;7.13;;;;;;;6.21;100.00;102368.78;5070122;28;20534;-65
2022/10/09 07:36:24;;;;;;;13.32;7.20;;;;;;;6.24;100.00;102364.09;5070029;28;20116;-65
2022/10/09 07:38:52;;;;;;;18.63;7.80;;;;;;;6.42;100.00;102369.63;5069786;28;20040;-65
2022/10/09 07:41:18;;;;;;;19.25;9.52;;;;;;;6.53;100.00;102372.19;5069032;28;20066;-65
2022/10/09 07:43:43;;;;;;;14.02;8.23;;;;;;;6.64;100.00;102371.25;5069707;28;20060;-65
2022/10/09 07:46:12;;;;;;;14.07;6.78;;;;;;;6.74;100.00;102358.06;5069828;28;20103;-65
2022/10/09 07:48:37;;;;;;;15.77;8.38;;;;;;;6.85;100.00;102367.72;5069827;28;20120;-66
2022/10/09 07:51:26;;;;;;;15.43;7.95;;;;;;;6.96;100.00;102375.56;5069632;28;20111;-65
2022/10/09 07:53:52;;;;;;;16.92;6.93;;;;;;;7.07;100.00;102366.66;5069880;28;20609;-65
2022/10/09 07:56:20;;;;;;;15.43;7.57;;;;;;;7.16;100.00;102361.38;5069607;28;20082;-65
2022/10/09 07:58:50;;;;;;;18.83;8.32;;;;;;;7.34;100.00;102366.84;5069796;28;20051;-66
2022/10/09 08:01:15;;;;;;;19.13;8.65;;;;;;;7.50;100.00;102366.28;5069691;28;20037;-65
2022/10/09 08:03:40;;;;;;;14.93;8.50;;;;;;;7.67;100.00;102364.75;5069570;28;20032;-65
2022/10/09 08:06:06;;;;;;;20.63;8.73;;;;;;;7.86;100.00;102356.78;5068250;28;20371;-65
2022/10/09 08:08:32;;;;;;;16.70;9.25;;;;;;;8.01;100.00;102364.31;5069395;28;20051;-65
2022/10/09 08:10:57;;;;;;;16.73;8.30;;;;;;;8.13;100.00;102357.84;5069605;28;20046;-65
2022/10/09 08:13:23;;;;;;;17.15;9.07;;;;;;;8.23;100.00;102356.00;5068958;28;20048;-65
2022/10/09 08:15:49;;;;;;;16.08;7.97;;;;;;;8.34;100.00;102349.69;5068241;28;20048;-66
2022/10/09 08:18:14;;;;;;;17.13;7.13;;;;;;;8.44;100.00;102360.34;5068882;28;20494;-65
2022/10/09 08:20:39;;;;;;;14.55;7.43;;;;;;;8.54;100.00;102347.81;5069255;28;20048;-65
2022/10/09 08:23:05;;;;;;;15.63;7.13;;;;;;;8.63;100.00;102346.13;5068882;28;20424;-65
2022/10/09 08:25:37;;;;;;;17.85;6.95;;;;;;;8.75;100.00;102348.44;5069236;28;20025;-67
2022/10/09 08:28:03;;;;;;;17.15;8.00;;;;;;;8.87;100.00;102342.91;5069329;28;20024;-67
2022/10/09 08:30:29;;;;;;;15.35;7.85;;;;;;;8.99;100.00;102349.72;5069334;28;20086;-67
2022/10/09 08:32:54;;;;;;;17.80;7.47;;;;;;;9.11;99.69;102345.00;5069209;28;20024;-67
2022/10/09 08:35:20;;;;;;;12.38;6.85;;;;;;;9.23;99.48;102337.66;5068899;28;20043;-67
2022/10/09 08:37:45;;;;;;;16.40;7.45;;;;;;;9.37;99.54;102345.09;5068912;28;20025;-67
2022/10/09 08:40:34;;;;;;;18.33;7.18;;;;;;;9.51;98.72;102341.91;5069122;28;20041;-67
2022/10/09 08:43:04;;;;;;;15.35;7.68;;;;;;;9.69;99.02;102333.88;5068049;28;20039;-67
2022/10/09 08:45:31;;;;;;;12.38;6.93;;;;;;;9.81;97.42;102324.66;5068525;28;20038;-67
2022/10/09 08:48:01;;;;;;;18.88;7.32;;;;;;;9.99;97.55;102332.63;5067735;28;20028;-67
2022/10/09 08:50:31;;;;;;;12.25;6.47;;;;;;;10.15;96.48;102326.56;5068914;28;20032;-67
2022/10/09 08:53:22;;;;;;;14.32;7.72;;;;;;;10.25;95.16;102323.78;5069081;28;20038;-67
2022/10/09 08:55:55;;;;;;;15.48;7.63;;;;;;;10.45;92.56;102330.59;5068967;28;20563;-67
2022/10/09 08:58:21;;;;;;;14.50;7.57;;;;;;;10.59;93.07;102323.81;5069071;28;20021;-67
2022/10/09 09:00:54;;;;;;;16.40;7.97;;;;;;;10.79;93.93;102320.88;5068981;28;20032;-67
2022/10/09 09:03:36;;;;;;;14.95;7.35;;;;;;;10.93;91.23;102317.59;5069078;28;20152;-67
2022/10/09 09:06:22;;;;;;;17.27;7.43;;;;;;;11.10;92.73;102311.28;5068854;28;20028;-67
2022/10/09 09:08:57;;;;;;;14.13;7.10;;;;;;;11.26;91.37;102312.31;5068850;28;20037;-64
2022/10/09 09:12:00;;;;;;;16.50;7.50;;;;;;;11.39;89.69;102308.16;5069046;28;20035;-64
2022/10/09 09:14:37;;;;;;;12.73;6.38;;;;;;;11.53;89.46;102311.19;5068628;28;20107;-64
2022/10/09 09:17:22;;;;;;;15.20;8.07;;;;;;;11.61;87.42;102308.50;5068722;28;20066;-65
2022/10/09 09:19:47;;;;;;;12.55;6.82;;;;;;;11.69;86.29;102296.97;5068825;28;20494;-65
2022/10/09 09:22:14;;;;;;;13.43;6.63;;;;;;;11.78;83.68;102298.63;5068850;28;20036;-66
2022/10/09 09:25:13;;;;;;;9.88;6.28;;;;;;;11.90;84.58;102301.84;5068631;28;20021;-65
2022/10/09 09:27:40;;;;;;;11.80;5.53;;;;;;;12.00;83.44;102291.78;5072228;28;20066;-65
2022/10/09 09:30:18;;;;;;;14.50;6.25;;;;;;;12.06;81.52;102299.94;5072452;28;20066;-65
2022/10/09 09:33:03;;;;;;;11.90;6.40;;;;;;;12.16;82.96;102286.41;5072414;28;20098;-65
2022/10/09 09:35:45;;;;;;;13.98;5.68;;;;;;;12.31;83.35;102277.63;5072192;28;20491;-65
2022/10/09 09:38:12;;;;;;;16.80;6.22;;;;;;;12.39;80.73;102272.25;5072305;28;20040;-65
2022/10/09 09:40:37;;;;;;;15.07;6.30;;;;;;;12.49;81.48;102272.88;5072412;28;20468;-65
2022/10/09 09:43:26;;;;;;;13.10;6.45;;;;;;;12.58;80.06;102268.34;5072011;28;20035;-65
2022/10/09 09:45:53;;;;;;;9.98;5.55;;;;;;;12.68;80.21;102261.75;5071526;28;20036;-65
2022/10/09 09:48:35;;;;;;;12.18;5.95;;;;;;;12.79;79.10;102262.38;5072072;28;20036;-65
2022/10/09 09:51:02;;;;;;;8.77;5.72;;;;;;;12.89;79.45;102257.59;5071944;28;20028;-65
2022/10/09 09:53:32;;;;;;;11.60;5.85;;;;;;;12.95;78.98;102254.22;5072073;28;20020;-65
2022/10/09 09:55:58;;;;;;;14.90;6.40;;;;;;;13.00;78.15;102259.06;5071987;28;20126;-65
2022/10/09 09:58:31;;;;;;;13.95;6.63;;;;;;;13.00;77.35;102248.34;5071761;28;20050;-65
2022/10/09 10:01:02;;;;;;;11.45;6.40;;;;;;;12.96;77.66;102237.13;5071633;28;20028;-65
2022/10/09 10:03:29;;;;;;;14.13;6.03;;;;;;;13.07;77.92;102247.47;5071633;28;20020;-65
2022/10/09 10:05:55;;;;;;;12.35;5.10;;;;;;;13.18;74.85;102240.84;5071683;28;20436;-65
2022/10/09 10:08:26;;;;;;;8.45;4.60;;;;;;;13.30;75.27;102247.44;5071573;28;20220;-65
2022/10/09 10:10:54;;;;;;;9.60;4.95;;;;;;;13.40;74.29;102239.16;5071794;28;20024;-65
2022/10/09 10:13:27;;;;;;;13.65;5.57;;;;;;;13.48;74.36;102236.41;5071552;28;20056;-65
2022/10/09 10:15:54;;;;;;;12.10;5.05;;;;;;;13.59;75.47;102235.97;5071515;28;20025;-65
2022/10/09 10:18:22;;;;;;;12.20;6.35;;;;;;;13.70;74.99;102229.34;5071528;28;20032;-65
2022/10/09 10:20:54;;;;;;;14.55;5.55;;;;;;;13.78;74.16;102229.25;5071658;28;20560;-65
2022/10/09 10:23:32;;;;;;;9.68;5.72;;;;;;;13.84;73.83;102221.50;5071414;28;20507;-65
2022/10/09 10:26:02;;;;;;;10.27;5.07;;;;;;;13.91;72.88;102220.56;5071423;28;20044;-65
2022/10/09 10:28:34;;;;;;;8.75;4.60;;;;;;;14.00;71.52;102213.25;5071414;28;20033;-65
2022/10/09 10:31:04;;;;;;;10.85;4.80;;;;;;;14.04;70.11;102217.22;5071308;28;20479;-65
2022/10/09 10:33:32;;;;;;;9.05;4.60;;;;;;;14.06;70.58;102214.34;5070940;28;20020;-65
2022/10/09 10:35:58;;;;;;;8.20;3.97;;;;;;;14.10;69.71;102211.13;5071194;28;20582;-65
2022/10/09 10:38:26;;;;;;;11.50;5.97;;;;;;;14.18;70.55;102197.59;5067578;28;20133;-65
2022/10/09 10:40:57;;;;;;;9.68;5.13;;;;;;;14.23;69.94;102197.03;5066623;28;20020;-65
2022/10/09 10:43:41;;;;;;;14.27;5.50;;;;;;;14.24;69.83;102196.84;5066789;28;20115;-66
2022/10/09 10:46:25;;;;;;;10.05;5.65;;;;;;;14.35;70.86;102200.88;5066618;28;20067;-65
2022/10/09 10:48:51;;;;;;;10.93;4.50;;;;;;;14.40;70.35;102178.84;5067193;28;20029;-65
2022/10/09 10:51:44;;;;;;;6.63;4.22;;;;;;;14.48;72.63;102184.94;5070928;28;20036;-65
2022/10/09 10:54:35;;;;;;;8.40;4.57;;;;;;;14.57;69.68;102174.13;5071046;28;20105;-65
2022/10/09 10:57:13;;;;;;;10.70;5.35;;;;;;;14.64;69.79;102172.31;5070540;28;20024;-65
2022/10/09 11:00:09;;;;;;;9.30;4.65;;;;;;;14.76;71.92;102172.66;5070719;28;20566;-65
2022/10/09 11:03:05;;;;;;;15.20;6.68;;;;;;;14.88;69.58;102171.09;5062424;28;20028;-65
2022/10/09 11:05:42;;;;;;;11.93;4.80;;;;;;;14.98;71.15;102162.72;5070433;28;20040;-65
2022/10/09 11:08:08;;;;;;;7.03;4.45;;;;;;;15.00;67.11;102158.00;5070621;28;20119;-65
2022/10/09 11:10:45;;;;;;;9.90;4.68;;;;;;;15.01;64.82;102154.28;5070583;28;20119;-65
2022/10/09 11:13:21;;;;;;;7.03;3.78;;;;;;;15.04;67.26;102151.22;5070327;28;20048;-65
2022/10/09 11:16:26;;;;;;;11.07;3.55;;;;;;;15.09;65.74;102152.28;5070211;28;20082;-65
2022/10/09 11:18:54;;;;;;;7.75;3.28;;;;;;;15.06;63.76;102147.31;5065171;28;20025;-66
2022/10/09 11:21:41;;;;;;;10.60;4.28;;;;;;;15.11;65.50;102136.78;5065739;28;20062;-66
2022/10/09 11:24:26;;;;;;;13.23;3.55;;;;;;;15.17;66.62;102135.19;5065955;28;20035;-66
2022/10/09 11:26:54;;;;;;;8.38;3.50;;;;;;;15.22;62.21;102132.75;5066231;28;21440;-66
2022/10/09 11:29:23;;;;;;;7.15;3.75;;;;;;;15.23;64.23;102125.53;5065882;28;20530;-66
2022/10/09 11:32:01;;;;;;;6.68;3.70;;;;;;;15.27;66.41;102124.09;5066010;28;20062;-66
2022/10/09 11:34:31;;;;;;;7.22;3.70;;;;;;;15.29;65.66;102125.56;5066023;28;20127;-66